sensor_id;sensor_type;location;lat;lon;timestamp;P1;durP1;ratioP1;P2;durP2;ratioP2
10582;SDS011;33679;51.218;6.786;2024-03-08T00:00:35;21.00;;;9.60;;
10582;SDS011;33679;51.218;6.786;2024-03-08T00:03:08;16.37;;;9.47;;
10582;SDS011;33679;51.218;6.786;2024-03-08T00:05:41;16.70;;;10.17;;
10582;SDS011;33679;51.218;6.786;2024-03-08T00:08:14;15.03;;;8.37;;
10582;SDS011;33679;51.218;6.786;2024-03-08T00:10:48;16.50;;;10.40;;
10582;SDS011;33679;51.218;6.786;2024-03-08T00:13:21;19.30;;;9.40;;
10582;SDS011;33679;51.218;6.786;2024-03-08T00:15:55;15.70;;;9.50;;
10582;SDS011;33679;51.218;6.786;2024-03-08T00:18:28;16.03;;;10.10;;
10582;SDS011;33679;51.218;6.786;2024-03-08T00:21:01;15.93;;;10.10;;
10582;SDS011;33679;51.218;6.786;2024-03-08T00:23:35;16.17;;;8.93;;
10582;SDS011;33679;51.218;6.786;2024-03-08T00:26:11;16.07;;;10.00;;
10582;SDS011;33679;51.218;6.786;2024-03-08T00:28:44;19.43;;;11.00;;
10582;SDS011;33679;51.218;6.786;2024-03-08T00:31:19;16.97;;;10.30;;
10582;SDS011;33679;51.218;6.786;2024-03-08T00:33:51;18.53;;;9.63;;
10582;SDS011;33679;51.218;6.786;2024-03-08T00:36:24;15.17;;;10.10;;
10582;SDS011;33679;51.218;6.786;2024-03-08T00:39:01;19.17;;;10.03;;
10582;SDS011;33679;51.218;6.786;2024-03-08T00:41:38;19.50;;;9.07;;
10582;SDS011;33679;51.218;6.786;2024-03-08T00:44:19;15.73;;;9.80;;
10582;SDS011;33679;51.218;6.786;2024-03-08T00:46:52;21.40;;;10.90;;
10582;SDS011;33679;51.218;6.786;2024-03-08T00:49:24;13.63;;;9.90;;
10582;SDS011;33679;51.218;6.786;2024-03-08T00:51:57;15.53;;;8.97;;
10582;SDS011;33679;51.218;6.786;2024-03-08T00:54:30;13.80;;;9.37;;
10582;SDS011;33679;51.218;6.786;2024-03-08T00:57:04;16.73;;;10.00;;
10582;SDS011;33679;51.218;6.786;2024-03-08T00:59:37;17.57;;;10.23;;
10582;SDS011;33679;51.218;6.786;2024-03-08T01:02:10;14.90;;;9.33;;
10582;SDS011;33679;51.218;6.786;2024-03-08T01:04:43;16.00;;;9.70;;
10582;SDS011;33679;51.218;6.786;2024-03-08T01:07:17;13.80;;;9.53;;
10582;SDS011;33679;51.218;6.786;2024-03-08T01:09:50;16.83;;;10.07;;
10582;SDS011;33679;51.218;6.786;2024-03-08T01:12:24;19.93;;;10.57;;
10582;SDS011;33679;51.218;6.786;2024-03-08T01:14:56;14.57;;;9.27;;
10582;SDS011;33679;51.218;6.786;2024-03-08T01:17:29;15.60;;;9.70;;
10582;SDS011;33679;51.218;6.786;2024-03-08T01:20:02;16.10;;;10.47;;
10582;SDS011;33679;51.218;6.786;2024-03-08T01:22:37;20.27;;;9.13;;
10582;SDS011;33679;51.218;6.786;2024-03-08T01:25:13;20.67;;;11.10;;
10582;SDS011;33679;51.218;6.786;2024-03-08T01:27:48;20.30;;;11.00;;
10582;SDS011;33679;51.218;6.786;2024-03-08T01:30:21;17.40;;;9.37;;
10582;SDS011;33679;51.218;6.786;2024-03-08T01:32:54;15.83;;;10.63;;
10582;SDS011;33679;51.218;6.786;2024-03-08T01:35:26;16.30;;;9.97;;
10582;SDS011;33679;51.218;6.786;2024-03-08T01:37:59;16.83;;;10.27;;
10582;SDS011;33679;51.218;6.786;2024-03-08T01:40:31;15.00;;;9.30;;
10582;SDS011;33679;51.218;6.786;2024-03-08T01:45:53;15.17;;;9.80;;
10582;SDS011;33679;51.218;6.786;2024-03-08T01:48:27;16.30;;;10.03;;
10582;SDS011;33679;51.218;6.786;2024-03-08T01:51:00;19.07;;;9.63;;
10582;SDS011;33679;51.218;6.786;2024-03-08T01:53:34;19.97;;;11.07;;
10582;SDS011;33679;51.218;6.786;2024-03-08T01:56:07;15.70;;;9.67;;
10582;SDS011;33679;51.218;6.786;2024-03-08T01:58:42;20.80;;;10.63;;
10582;SDS011;33679;51.218;6.786;2024-03-08T02:01:18;16.20;;;10.10;;
10582;SDS011;33679;51.218;6.786;2024-03-08T02:03:50;16.50;;;10.30;;
10582;SDS011;33679;51.218;6.786;2024-03-08T02:06:26;19.37;;;10.37;;
10582;SDS011;33679;51.218;6.786;2024-03-08T02:08:58;17.63;;;10.27;;
10582;SDS011;33679;51.218;6.786;2024-03-08T02:11:38;18.23;;;10.10;;
10582;SDS011;33679;51.218;6.786;2024-03-08T02:14:14;20.23;;;10.20;;
10582;SDS011;33679;51.218;6.786;2024-03-08T02:16:46;22.03;;;10.47;;
10582;SDS011;33679;51.218;6.786;2024-03-08T02:19:24;19.37;;;9.90;;
10582;SDS011;33679;51.218;6.786;2024-03-08T02:21:59;15.47;;;9.80;;
10582;SDS011;33679;51.218;6.786;2024-03-08T02:24:34;20.50;;;9.77;;
10582;SDS011;33679;51.218;6.786;2024-03-08T02:27:07;15.33;;;10.20;;
10582;SDS011;33679;51.218;6.786;2024-03-08T02:29:42;17.87;;;10.27;;
10582;SDS011;33679;51.218;6.786;2024-03-08T02:32:16;18.90;;;10.93;;
10582;SDS011;33679;51.218;6.786;2024-03-08T02:34:49;16.27;;;9.50;;
10582;SDS011;33679;51.218;6.786;2024-03-08T02:37:23;19.70;;;10.80;;
10582;SDS011;33679;51.218;6.786;2024-03-08T02:39:57;20.70;;;10.80;;
10582;SDS011;33679;51.218;6.786;2024-03-08T02:42:29;20.63;;;10.40;;
10582;SDS011;33679;51.218;6.786;2024-03-08T02:45:03;18.50;;;9.83;;
10582;SDS011;33679;51.218;6.786;2024-03-08T02:47:40;20.17;;;10.40;;
10582;SDS011;33679;51.218;6.786;2024-03-08T02:50:14;16.40;;;9.83;;
10582;SDS011;33679;51.218;6.786;2024-03-08T02:52:51;18.03;;;10.93;;
10582;SDS011;33679;51.218;6.786;2024-03-08T02:55:24;17.30;;;10.00;;
10582;SDS011;33679;51.218;6.786;2024-03-08T02:57:57;15.07;;;9.93;;
10582;SDS011;33679;51.218;6.786;2024-03-08T03:00:29;20.13;;;10.40;;
10582;SDS011;33679;51.218;6.786;2024-03-08T03:03:04;18.30;;;9.30;;
10582;SDS011;33679;51.218;6.786;2024-03-08T03:05:37;17.80;;;10.00;;
10582;SDS011;33679;51.218;6.786;2024-03-08T03:08:13;16.83;;;9.80;;
10582;SDS011;33679;51.218;6.786;2024-03-08T03:10:47;20.60;;;10.80;;
10582;SDS011;33679;51.218;6.786;2024-03-08T03:13:19;20.23;;;11.00;;
10582;SDS011;33679;51.218;6.786;2024-03-08T03:15:53;16.37;;;10.63;;
10582;SDS011;33679;51.218;6.786;2024-03-08T03:18:28;18.53;;;10.53;;
10582;SDS011;33679;51.218;6.786;2024-03-08T03:21:01;20.37;;;10.23;;
10582;SDS011;33679;51.218;6.786;2024-03-08T03:23:39;21.77;;;11.27;;
10582;SDS011;33679;51.218;6.786;2024-03-08T03:26:12;21.30;;;11.70;;
10582;SDS011;33679;51.218;6.786;2024-03-08T03:28:47;19.00;;;10.80;;
10582;SDS011;33679;51.218;6.786;2024-03-08T03:31:22;19.50;;;10.40;;
10582;SDS011;33679;51.218;6.786;2024-03-08T03:33:56;17.37;;;10.13;;
10582;SDS011;33679;51.218;6.786;2024-03-08T03:36:32;19.50;;;11.10;;
10582;SDS011;33679;51.218;6.786;2024-03-08T03:39:07;15.27;;;10.00;;
10582;SDS011;33679;51.218;6.786;2024-03-08T03:41:43;20.10;;;10.00;;
10582;SDS011;33679;51.218;6.786;2024-03-08T03:44:16;17.93;;;10.10;;
10582;SDS011;33679;51.218;6.786;2024-03-08T03:46:49;17.20;;;10.07;;
10582;SDS011;33679;51.218;6.786;2024-03-08T03:49:22;19.23;;;11.93;;
10582;SDS011;33679;51.218;6.786;2024-03-08T03:51:54;19.60;;;10.50;;
10582;SDS011;33679;51.218;6.786;2024-03-08T03:54:31;20.37;;;11.10;;
10582;SDS011;33679;51.218;6.786;2024-03-08T03:57:04;18.60;;;10.27;;
10582;SDS011;33679;51.218;6.786;2024-03-08T03:59:38;19.40;;;11.13;;
10582;SDS011;33679;51.218;6.786;2024-03-08T04:02:12;19.83;;;11.50;;
10582;SDS011;33679;51.218;6.786;2024-03-08T04:04:44;19.63;;;11.40;;
10582;SDS011;33679;51.218;6.786;2024-03-08T04:07:17;18.57;;;10.90;;
10582;SDS011;33679;51.218;6.786;2024-03-08T04:09:53;19.23;;;11.20;;
10582;SDS011;33679;51.218;6.786;2024-03-08T04:12:26;16.67;;;9.97;;
10582;SDS011;33679;51.218;6.786;2024-03-08T04:15:00;25.00;;;11.13;;
10582;SDS011;33679;51.218;6.786;2024-03-08T04:17:33;17.90;;;10.40;;
10582;SDS011;33679;51.218;6.786;2024-03-08T04:20:07;18.70;;;10.40;;
10582;SDS011;33679;51.218;6.786;2024-03-08T04:22:41;17.93;;;10.07;;
10582;SDS011;33679;51.218;6.786;2024-03-08T04:25:15;19.63;;;10.90;;
10582;SDS011;33679;51.218;6.786;2024-03-08T04:27:48;21.00;;;11.60;;
10582;SDS011;33679;51.218;6.786;2024-03-08T04:30:20;19.83;;;10.77;;
10582;SDS011;33679;51.218;6.786;2024-03-08T04:32:53;21.40;;;11.63;;
10582;SDS011;33679;51.218;6.786;2024-03-08T04:35:25;21.80;;;11.60;;
10582;SDS011;33679;51.218;6.786;2024-03-08T04:37:57;20.50;;;10.70;;
10582;SDS011;33679;51.218;6.786;2024-03-08T04:40:31;16.20;;;9.93;;
10582;SDS011;33679;51.218;6.786;2024-03-08T04:43:07;19.03;;;10.70;;
10582;SDS011;33679;51.218;6.786;2024-03-08T04:45:40;18.03;;;10.00;;
10582;SDS011;33679;51.218;6.786;2024-03-08T04:48:14;21.37;;;10.70;;
10582;SDS011;33679;51.218;6.786;2024-03-08T04:50:46;19.37;;;10.07;;
10582;SDS011;33679;51.218;6.786;2024-03-08T04:53:18;18.60;;;10.27;;
10582;SDS011;33679;51.218;6.786;2024-03-08T04:55:52;19.00;;;11.37;;
10582;SDS011;33679;51.218;6.786;2024-03-08T04:58:25;19.57;;;11.23;;
10582;SDS011;33679;51.218;6.786;2024-03-08T05:00:57;19.33;;;10.50;;
10582;SDS011;33679;51.218;6.786;2024-03-08T05:03:30;19.70;;;11.30;;
10582;SDS011;33679;51.218;6.786;2024-03-08T05:06:02;16.10;;;9.80;;
10582;SDS011;33679;51.218;6.786;2024-03-08T05:08:34;19.07;;;10.37;;
10582;SDS011;33679;51.218;6.786;2024-03-08T05:11:08;17.10;;;10.53;;
10582;SDS011;33679;51.218;6.786;2024-03-08T05:13:41;19.00;;;10.10;;
10582;SDS011;33679;51.218;6.786;2024-03-08T05:16:14;19.00;;;10.83;;
10582;SDS011;33679;51.218;6.786;2024-03-08T05:18:47;17.23;;;10.30;;
10582;SDS011;33679;51.218;6.786;2024-03-08T05:21:20;20.17;;;10.57;;
10582;SDS011;33679;51.218;6.786;2024-03-08T05:23:52;19.90;;;10.40;;
10582;SDS011;33679;51.218;6.786;2024-03-08T05:26:26;22.73;;;10.90;;
10582;SDS011;33679;51.218;6.786;2024-03-08T05:29:00;17.20;;;9.87;;
10582;SDS011;33679;51.218;6.786;2024-03-08T05:31:36;21.13;;;10.40;;
10582;SDS011;33679;51.218;6.786;2024-03-08T05:34:17;18.17;;;9.70;;
10582;SDS011;33679;51.218;6.786;2024-03-08T05:36:49;17.80;;;10.73;;
10582;SDS011;33679;51.218;6.786;2024-03-08T05:39:22;18.53;;;12.47;;
10582;SDS011;33679;51.218;6.786;2024-03-08T05:41:58;17.40;;;10.77;;
10582;SDS011;33679;51.218;6.786;2024-03-08T05:44:30;19.53;;;10.60;;
10582;SDS011;33679;51.218;6.786;2024-03-08T05:47:05;20.50;;;11.30;;
10582;SDS011;33679;51.218;6.786;2024-03-08T05:49:39;21.47;;;10.67;;
10582;SDS011;33679;51.218;6.786;2024-03-08T05:52:12;21.00;;;11.50;;
10582;SDS011;33679;51.218;6.786;2024-03-08T05:54:44;21.20;;;11.27;;
10582;SDS011;33679;51.218;6.786;2024-03-08T05:57:19;19.67;;;11.27;;
10582;SDS011;33679;51.218;6.786;2024-03-08T05:59:53;21.17;;;11.17;;
10582;SDS011;33679;51.218;6.786;2024-03-08T06:02:25;16.43;;;9.93;;
10582;SDS011;33679;51.218;6.786;2024-03-08T06:04:58;22.37;;;10.63;;
10582;SDS011;33679;51.218;6.786;2024-03-08T06:07:32;20.43;;;11.83;;
10582;SDS011;33679;51.218;6.786;2024-03-08T06:10:05;21.90;;;11.73;;
10582;SDS011;33679;51.218;6.786;2024-03-08T06:12:41;22.10;;;11.70;;
10582;SDS011;33679;51.218;6.786;2024-03-08T06:15:14;19.50;;;10.83;;
10582;SDS011;33679;51.218;6.786;2024-03-08T06:17:49;20.63;;;10.80;;
10582;SDS011;33679;51.218;6.786;2024-03-08T06:20:23;23.47;;;11.93;;
10582;SDS011;33679;51.218;6.786;2024-03-08T06:22:57;21.97;;;13.60;;
10582;SDS011;33679;51.218;6.786;2024-03-08T06:25:31;23.90;;;15.17;;
10582;SDS011;33679;51.218;6.786;2024-03-08T06:28:07;25.83;;;11.67;;
10582;SDS011;33679;51.218;6.786;2024-03-08T06:30:38;20.63;;;10.53;;
10582;SDS011;33679;51.218;6.786;2024-03-08T06:33:10;21.43;;;11.00;;
10582;SDS011;33679;51.218;6.786;2024-03-08T06:35:43;20.50;;;11.27;;
10582;SDS011;33679;51.218;6.786;2024-03-08T06:38:16;24.70;;;11.63;;
10582;SDS011;33679;51.218;6.786;2024-03-08T06:40:49;20.53;;;11.43;;
10582;SDS011;33679;51.218;6.786;2024-03-08T06:43:24;21.40;;;10.60;;
10582;SDS011;33679;51.218;6.786;2024-03-08T06:46:03;23.70;;;11.37;;
10582;SDS011;33679;51.218;6.786;2024-03-08T06:48:36;19.30;;;11.40;;
10582;SDS011;33679;51.218;6.786;2024-03-08T06:51:08;18.43;;;10.13;;
10582;SDS011;33679;51.218;6.786;2024-03-08T06:53:42;19.97;;;11.00;;
10582;SDS011;33679;51.218;6.786;2024-03-08T06:56:15;20.47;;;11.43;;
10582;SDS011;33679;51.218;6.786;2024-03-08T06:58:50;22.10;;;12.47;;
10582;SDS011;33679;51.218;6.786;2024-03-08T07:01:26;25.73;;;13.70;;
10582;SDS011;33679;51.218;6.786;2024-03-08T07:04:01;22.87;;;11.83;;
10582;SDS011;33679;51.218;6.786;2024-03-08T07:06:35;22.87;;;11.03;;
10582;SDS011;33679;51.218;6.786;2024-03-08T07:09:07;19.67;;;11.40;;
10582;SDS011;33679;51.218;6.786;2024-03-08T07:11:41;24.00;;;10.60;;
10582;SDS011;33679;51.218;6.786;2024-03-08T07:14:15;19.03;;;10.63;;
10582;SDS011;33679;51.218;6.786;2024-03-08T07:16:47;24.47;;;12.27;;
10582;SDS011;33679;51.218;6.786;2024-03-08T07:19:19;21.40;;;11.07;;
10582;SDS011;33679;51.218;6.786;2024-03-08T07:21:52;20.73;;;11.43;;
10582;SDS011;33679;51.218;6.786;2024-03-08T07:24:25;18.33;;;10.60;;
10582;SDS011;33679;51.218;6.786;2024-03-08T07:27:09;18.57;;;10.63;;
10582;SDS011;33679;51.218;6.786;2024-03-08T07:29:46;17.50;;;10.40;;
10582;SDS011;33679;51.218;6.786;2024-03-08T07:32:19;19.90;;;10.80;;
10582;SDS011;33679;51.218;6.786;2024-03-08T07:34:52;19.33;;;11.40;;
10582;SDS011;33679;51.218;6.786;2024-03-08T07:37:26;17.73;;;10.10;;
10582;SDS011;33679;51.218;6.786;2024-03-08T07:39:58;22.03;;;11.37;;
10582;SDS011;33679;51.218;6.786;2024-03-08T07:42:30;16.30;;;9.50;;
10582;SDS011;33679;51.218;6.786;2024-03-08T07:45:05;21.47;;;11.67;;
10582;SDS011;33679;51.218;6.786;2024-03-08T07:47:40;23.10;;;11.80;;
10582;SDS011;33679;51.218;6.786;2024-03-08T07:50:12;27.13;;;14.00;;
10582;SDS011;33679;51.218;6.786;2024-03-08T07:52:50;19.13;;;10.40;;
10582;SDS011;33679;51.218;6.786;2024-03-08T07:55:23;21.50;;;11.20;;
10582;SDS011;33679;51.218;6.786;2024-03-08T07:57:57;19.37;;;11.83;;
10582;SDS011;33679;51.218;6.786;2024-03-08T08:00:31;20.77;;;11.73;;
10582;SDS011;33679;51.218;6.786;2024-03-08T08:03:03;19.80;;;11.00;;
10582;SDS011;33679;51.218;6.786;2024-03-08T08:05:36;19.93;;;10.47;;
10582;SDS011;33679;51.218;6.786;2024-03-08T08:08:10;20.23;;;11.17;;
10582;SDS011;33679;51.218;6.786;2024-03-08T08:10:43;20.47;;;10.63;;
10582;SDS011;33679;51.218;6.786;2024-03-08T08:13:17;19.47;;;9.97;;
10582;SDS011;33679;51.218;6.786;2024-03-08T08:15:53;21.10;;;10.30;;
10582;SDS011;33679;51.218;6.786;2024-03-08T08:18:28;19.00;;;11.37;;
10582;SDS011;33679;51.218;6.786;2024-03-08T08:21:01;21.00;;;10.90;;
10582;SDS011;33679;51.218;6.786;2024-03-08T08:23:33;18.37;;;10.80;;
10582;SDS011;33679;51.218;6.786;2024-03-08T08:26:06;17.83;;;10.27;;
10582;SDS011;33679;51.218;6.786;2024-03-08T08:28:44;17.23;;;10.37;;
10582;SDS011;33679;51.218;6.786;2024-03-08T08:31:18;17.33;;;10.27;;
10582;SDS011;33679;51.218;6.786;2024-03-08T08:33:52;20.50;;;11.60;;
10582;SDS011;33679;51.218;6.786;2024-03-08T08:36:28;18.07;;;10.33;;
10582;SDS011;33679;51.218;6.786;2024-03-08T08:39:00;15.40;;;8.60;;
10582;SDS011;33679;51.218;6.786;2024-03-08T08:41:35;17.83;;;8.80;;
10582;SDS011;33679;51.218;6.786;2024-03-08T08:44:08;14.37;;;9.00;;
10582;SDS011;33679;51.218;6.786;2024-03-08T08:46:45;22.00;;;10.97;;
10582;SDS011;33679;51.218;6.786;2024-03-08T08:49:17;14.50;;;8.73;;
10582;SDS011;33679;51.218;6.786;2024-03-08T08:51:51;14.50;;;8.53;;
10582;SDS011;33679;51.218;6.786;2024-03-08T08:54:24;15.60;;;8.80;;
10582;SDS011;33679;51.218;6.786;2024-03-08T08:56:59;19.20;;;9.67;;
10582;SDS011;33679;51.218;6.786;2024-03-08T08:59:39;16.37;;;7.30;;
10582;SDS011;33679;51.218;6.786;2024-03-08T09:02:14;20.07;;;9.30;;
10582;SDS011;33679;51.218;6.786;2024-03-08T09:04:51;13.57;;;7.93;;
10582;SDS011;33679;51.218;6.786;2024-03-08T09:07:26;14.37;;;8.37;;
10582;SDS011;33679;51.218;6.786;2024-03-08T09:09:58;16.70;;;8.00;;
10582;SDS011;33679;51.218;6.786;2024-03-08T09:12:31;12.77;;;7.77;;
10582;SDS011;33679;51.218;6.786;2024-03-08T09:15:04;14.57;;;8.17;;
10582;SDS011;33679;51.218;6.786;2024-03-08T09:17:40;12.70;;;7.43;;
10582;SDS011;33679;51.218;6.786;2024-03-08T09:20:13;18.60;;;8.13;;
10582;SDS011;33679;51.218;6.786;2024-03-08T09:22:46;15.73;;;7.83;;
10582;SDS011;33679;51.218;6.786;2024-03-08T09:25:21;16.40;;;8.73;;
10582;SDS011;33679;51.218;6.786;2024-03-08T09:27:54;14.33;;;8.67;;
10582;SDS011;33679;51.218;6.786;2024-03-08T09:30:27;18.17;;;10.30;;
10582;SDS011;33679;51.218;6.786;2024-03-08T09:33:04;15.30;;;8.90;;
10582;SDS011;33679;51.218;6.786;2024-03-08T09:35:36;14.27;;;8.10;;
10582;SDS011;33679;51.218;6.786;2024-03-08T09:38:08;13.97;;;8.87;;
10582;SDS011;33679;51.218;6.786;2024-03-08T09:40:43;16.03;;;8.73;;
10582;SDS011;33679;51.218;6.786;2024-03-08T09:43:17;18.40;;;10.10;;
10582;SDS011;33679;51.218;6.786;2024-03-08T09:45:49;16.80;;;9.50;;
10582;SDS011;33679;51.218;6.786;2024-03-08T09:48:27;12.03;;;8.17;;
10582;SDS011;33679;51.218;6.786;2024-03-08T09:51:01;17.87;;;9.57;;
10582;SDS011;33679;51.218;6.786;2024-03-08T09:53:34;13.00;;;7.60;;
10582;SDS011;33679;51.218;6.786;2024-03-08T09:56:08;13.00;;;8.27;;
10582;SDS011;33679;51.218;6.786;2024-03-08T09:58:43;14.20;;;8.77;;
10582;SDS011;33679;51.218;6.786;2024-03-08T10:01:46;18.73;;;9.47;;
10582;SDS011;33679;51.218;6.786;2024-03-08T10:04:23;19.83;;;8.30;;
10582;SDS011;33679;51.218;6.786;2024-03-08T10:06:57;17.70;;;10.27;;
10582;SDS011;33679;51.218;6.786;2024-03-08T10:09:30;13.60;;;8.10;;
10582;SDS011;33679;51.218;6.786;2024-03-08T10:12:03;11.63;;;7.70;;
10582;SDS011;33679;51.218;6.786;2024-03-08T10:14:39;11.70;;;7.90;;
10582;SDS011;33679;51.218;6.786;2024-03-08T10:17:13;13.77;;;8.13;;
10582;SDS011;33679;51.218;6.786;2024-03-08T10:19:52;16.47;;;8.07;;
10582;SDS011;33679;51.218;6.786;2024-03-08T10:22:29;13.93;;;7.70;;
10582;SDS011;33679;51.218;6.786;2024-03-08T10:25:02;11.40;;;7.90;;
10582;SDS011;33679;51.218;6.786;2024-03-08T10:27:38;12.87;;;8.00;;
10582;SDS011;33679;51.218;6.786;2024-03-08T10:30:14;13.33;;;7.13;;
10582;SDS011;33679;51.218;6.786;2024-03-08T10:32:51;23.17;;;7.50;;
10582;SDS011;33679;51.218;6.786;2024-03-08T10:35:25;12.37;;;7.80;;
10582;SDS011;33679;51.218;6.786;2024-03-08T10:37:59;12.10;;;7.70;;
10582;SDS011;33679;51.218;6.786;2024-03-08T10:40:40;13.50;;;7.80;;
10582;SDS011;33679;51.218;6.786;2024-03-08T10:43:16;13.47;;;7.90;;
10582;SDS011;33679;51.218;6.786;2024-03-08T10:46:00;22.07;;;8.10;;
10582;SDS011;33679;51.218;6.786;2024-03-08T10:48:43;13.57;;;7.50;;
10582;SDS011;33679;51.218;6.786;2024-03-08T10:51:23;10.67;;;6.87;;
10582;SDS011;33679;51.218;6.786;2024-03-08T10:53:58;10.70;;;7.00;;
10582;SDS011;33679;51.218;6.786;2024-03-08T10:56:34;14.13;;;6.80;;
10582;SDS011;33679;51.218;6.786;2024-03-08T10:59:08;9.47;;;6.30;;
10582;SDS011;33679;51.218;6.786;2024-03-08T11:01:44;10.23;;;6.20;;
10582;SDS011;33679;51.218;6.786;2024-03-08T11:04:17;11.23;;;6.20;;
10582;SDS011;33679;51.218;6.786;2024-03-08T11:06:55;9.97;;;6.20;;
10582;SDS011;33679;51.218;6.786;2024-03-08T11:09:36;9.53;;;5.83;;
10582;SDS011;33679;51.218;6.786;2024-03-08T11:12:18;11.07;;;6.30;;
10582;SDS011;33679;51.218;6.786;2024-03-08T11:14:54;12.10;;;6.67;;
10582;SDS011;33679;51.218;6.786;2024-03-08T11:17:41;8.60;;;6.03;;
10582;SDS011;33679;51.218;6.786;2024-03-08T11:20:20;11.30;;;5.90;;
10582;SDS011;33679;51.218;6.786;2024-03-08T11:23:02;23.40;;;7.03;;
10582;SDS011;33679;51.218;6.786;2024-03-08T11:25:36;11.40;;;5.80;;
10582;SDS011;33679;51.218;6.786;2024-03-08T11:28:13;12.73;;;5.87;;
10582;SDS011;33679;51.218;6.786;2024-03-08T11:33:50;9.27;;;5.67;;
10582;SDS011;33679;51.218;6.786;2024-03-08T11:36:23;8.80;;;5.40;;
10582;SDS011;33679;51.218;6.786;2024-03-08T11:38:57;8.10;;;5.87;;
10582;SDS011;33679;51.218;6.786;2024-03-08T11:41:40;11.03;;;6.10;;
10582;SDS011;33679;51.218;6.786;2024-03-08T11:44:16;9.03;;;5.70;;
10582;SDS011;33679;51.218;6.786;2024-03-08T11:47:03;8.80;;;5.30;;
10582;SDS011;33679;51.218;6.786;2024-03-08T11:49:44;12.30;;;6.70;;
10582;SDS011;33679;51.218;6.786;2024-03-08T11:52:19;9.30;;;5.80;;
10582;SDS011;33679;51.218;6.786;2024-03-08T11:54:54;9.53;;;6.53;;
10582;SDS011;33679;51.218;6.786;2024-03-08T11:57:27;10.50;;;5.60;;
10582;SDS011;33679;51.218;6.786;2024-03-08T12:00:02;13.40;;;5.57;;
10582;SDS011;33679;51.218;6.786;2024-03-08T12:02:41;11.80;;;5.90;;
10582;SDS011;33679;51.218;6.786;2024-03-08T12:05:24;8.90;;;6.10;;
10582;SDS011;33679;51.218;6.786;2024-03-08T12:07:58;11.73;;;6.10;;
10582;SDS011;33679;51.218;6.786;2024-03-08T12:10:33;8.40;;;5.47;;
10582;SDS011;33679;51.218;6.786;2024-03-08T12:13:08;11.80;;;6.40;;
10582;SDS011;33679;51.218;6.786;2024-03-08T12:15:45;8.33;;;5.77;;
10582;SDS011;33679;51.218;6.786;2024-03-08T12:18:19;8.97;;;6.00;;
10582;SDS011;33679;51.218;6.786;2024-03-08T12:20:51;7.73;;;5.37;;
10582;SDS011;33679;51.218;6.786;2024-03-08T12:23:38;11.57;;;5.87;;
10582;SDS011;33679;51.218;6.786;2024-03-08T12:26:13;9.70;;;5.50;;
10582;SDS011;33679;51.218;6.786;2024-03-08T12:28:47;15.07;;;5.90;;
10582;SDS011;33679;51.218;6.786;2024-03-08T12:31:20;11.73;;;5.73;;
10582;SDS011;33679;51.218;6.786;2024-03-08T12:33:57;11.27;;;5.93;;
10582;SDS011;33679;51.218;6.786;2024-03-08T12:36:34;9.47;;;5.63;;
10582;SDS011;33679;51.218;6.786;2024-03-08T12:39:06;9.00;;;6.00;;
10582;SDS011;33679;51.218;6.786;2024-03-08T12:41:45;10.07;;;5.80;;
10582;SDS011;33679;51.218;6.786;2024-03-08T12:44:19;10.20;;;6.53;;
10582;SDS011;33679;51.218;6.786;2024-03-08T12:46:52;10.63;;;6.17;;
10582;SDS011;33679;51.218;6.786;2024-03-08T12:49:26;8.90;;;5.27;;
10582;SDS011;33679;51.218;6.786;2024-03-08T12:51:58;10.20;;;5.93;;
10582;SDS011;33679;51.218;6.786;2024-03-08T12:54:31;9.57;;;4.83;;
10582;SDS011;33679;51.218;6.786;2024-03-08T12:57:06;9.80;;;6.40;;
10582;SDS011;33679;51.218;6.786;2024-03-08T12:59:39;8.47;;;5.37;;
10582;SDS011;33679;51.218;6.786;2024-03-08T13:02:13;9.20;;;6.07;;
10582;SDS011;33679;51.218;6.786;2024-03-08T13:04:49;11.10;;;6.30;;
10582;SDS011;33679;51.218;6.786;2024-03-08T13:07:27;9.57;;;5.00;;
10582;SDS011;33679;51.218;6.786;2024-03-08T13:10:02;9.37;;;5.80;;
10582;SDS011;33679;51.218;6.786;2024-03-08T13:12:39;8.00;;;5.33;;
10582;SDS011;33679;51.218;6.786;2024-03-08T13:15:12;8.77;;;5.20;;
10582;SDS011;33679;51.218;6.786;2024-03-08T13:17:50;8.63;;;5.40;;
10582;SDS011;33679;51.218;6.786;2024-03-08T13:20:24;8.03;;;5.67;;
10582;SDS011;33679;51.218;6.786;2024-03-08T13:23:02;10.57;;;5.73;;
10582;SDS011;33679;51.218;6.786;2024-03-08T13:25:36;9.77;;;5.77;;
10582;SDS011;33679;51.218;6.786;2024-03-08T13:28:12;8.20;;;5.20;;
10582;SDS011;33679;51.218;6.786;2024-03-08T13:30:49;9.97;;;5.77;;
10582;SDS011;33679;51.218;6.786;2024-03-08T13:33:25;9.63;;;6.40;;
10582;SDS011;33679;51.218;6.786;2024-03-08T13:36:00;10.07;;;6.50;;
10582;SDS011;33679;51.218;6.786;2024-03-08T13:38:35;8.67;;;5.50;;
10582;SDS011;33679;51.218;6.786;2024-03-08T13:41:07;10.20;;;5.97;;
10582;SDS011;33679;51.218;6.786;2024-03-08T13:43:42;7.33;;;5.77;;
10582;SDS011;33679;51.218;6.786;2024-03-08T13:46:17;10.90;;;6.23;;
10582;SDS011;33679;51.218;6.786;2024-03-08T13:48:50;10.00;;;6.27;;
10582;SDS011;33679;51.218;6.786;2024-03-08T13:51:32;12.10;;;5.73;;
10582;SDS011;33679;51.218;6.786;2024-03-08T13:54:07;8.40;;;5.13;;
10582;SDS011;33679;51.218;6.786;2024-03-08T13:56:42;10.10;;;5.50;;
10582;SDS011;33679;51.218;6.786;2024-03-08T13:59:18;9.47;;;5.73;;
10582;SDS011;33679;51.218;6.786;2024-03-08T14:01:55;11.00;;;6.53;;
10582;SDS011;33679;51.218;6.786;2024-03-08T14:04:30;12.30;;;6.37;;
10582;SDS011;33679;51.218;6.786;2024-03-08T14:07:09;10.50;;;5.57;;
10582;SDS011;33679;51.218;6.786;2024-03-08T14:09:55;10.70;;;5.30;;
10582;SDS011;33679;51.218;6.786;2024-03-08T14:13:09;8.27;;;5.10;;
10582;SDS011;33679;51.218;6.786;2024-03-08T14:15:48;10.50;;;5.70;;
10582;SDS011;33679;51.218;6.786;2024-03-08T14:18:46;11.67;;;6.13;;
10582;SDS011;33679;51.218;6.786;2024-03-08T14:24:08;8.27;;;5.13;;
10582;SDS011;33679;51.218;6.786;2024-03-08T14:25:10;9.73;;;6.30;;
10582;SDS011;33679;51.218;6.786;2024-03-08T14:27:59;12.10;;;7.50;;
10582;SDS011;33679;51.218;6.786;2024-03-08T14:30:37;11.80;;;6.60;;
10582;SDS011;33679;51.218;6.786;2024-03-08T14:33:13;8.97;;;5.70;;
10582;SDS011;33679;51.218;6.786;2024-03-08T14:35:46;10.50;;;6.20;;
10582;SDS011;33679;51.218;6.786;2024-03-08T14:38:21;10.67;;;6.70;;
10582;SDS011;33679;51.218;6.786;2024-03-08T14:40:58;9.00;;;6.07;;
10582;SDS011;33679;51.218;6.786;2024-03-08T14:43:31;10.83;;;6.13;;
10582;SDS011;33679;51.218;6.786;2024-03-08T14:46:04;12.70;;;7.20;;
10582;SDS011;33679;51.218;6.786;2024-03-08T14:48:38;9.10;;;6.17;;
10582;SDS011;33679;51.218;6.786;2024-03-08T14:51:13;10.07;;;5.97;;
10582;SDS011;33679;51.218;6.786;2024-03-08T14:53:56;11.27;;;6.03;;
10582;SDS011;33679;51.218;6.786;2024-03-08T14:56:30;10.13;;;6.20;;
10582;SDS011;33679;51.218;6.786;2024-03-08T14:59:10;9.73;;;7.10;;
10582;SDS011;33679;51.218;6.786;2024-03-08T15:01:43;11.27;;;6.80;;
10582;SDS011;33679;51.218;6.786;2024-03-08T15:04:19;10.23;;;6.73;;
10582;SDS011;33679;51.218;6.786;2024-03-08T15:06:53;10.83;;;6.50;;
10582;SDS011;33679;51.218;6.786;2024-03-08T15:09:28;11.73;;;6.67;;
10582;SDS011;33679;51.218;6.786;2024-03-08T15:12:10;10.27;;;6.47;;
10582;SDS011;33679;51.218;6.786;2024-03-08T15:14:44;9.63;;;6.73;;
10582;SDS011;33679;51.218;6.786;2024-03-08T15:17:17;13.93;;;7.53;;
10582;SDS011;33679;51.218;6.786;2024-03-08T15:19:54;12.33;;;6.73;;
10582;SDS011;33679;51.218;6.786;2024-03-08T15:22:27;13.53;;;7.07;;